Flight Track Log - Related Links

Times and Time Zones

All times are in EDT time to prevent confusion due to time zone crossing. See the NKS324 flight status page for this flight to view local times or setup timezone preferences in your user account.

Time Position Orientation Groundspeed Altitude Reporting Facility
EDT Latitude Longitude Course Direction KTS MPH feet Rate Location/Type
Sun 11:34:30 PM 28.4000 -81.3000 150° Southeast 167 192 500  Level Orlando TRACON
Sun 11:35:48 PM 28.3500 -81.2667 150° Southeast 217 250 2,800 1,856 Climbing Orlando TRACON
Sun 11:36:49 PM 28.3500 -81.1833 90° East 276 318 4,800 2,101 Climbing Orlando TRACON
Sun 11:42:45 PM 28.8540 -81.2860 90° East 388 447 17,400 2,061 Climbing FlightAware ADS-B
Sun 11:43:25 PM 28.9220 -81.3140 340° North 399 459 18,400 1,482 Climbing FlightAware ADS-B
Sun 11:44:10 PM 29.0010 -81.3470 340° North 412 474 19,500 1,655 Climbing FlightAware ADS-B
Sun 11:44:52 PM 29.0780 -81.3790 340° North 414 476 20,800 1,814 Climbing FlightAware ADS-B
Sun 11:45:36 PM 29.1630 -81.3940 351° North 418 481 22,100 1,786 Climbing FlightAware ADS-B
Sun 11:46:16 PM 29.2410 -81.4020 355° North 416 479 23,300 1,650 Climbing FlightAware ADS-B
Sun 11:46:56 PM 29.3190 -81.4090 356° North 420 483 24,300 1,186 Climbing FlightAware ADS-B
Sun 11:47:42 PM 29.4030 -81.4180 355° North 430 495 25,000 614 Climbing FlightAware ADS-B
Sun 11:48:24 PM 29.4780 -81.4250 355° North 433 498 25,200 767 Climbing FlightAware ADS-B
Sun 11:49:08 PM 29.5640 -81.4340 355° North 438 504 26,100 984 Climbing FlightAware ADS-B
Sun 11:49:45 PM 29.6540 -81.4420 356° North 27,100 857 Climbing FlightAware ADS-B
Sun 11:50:32 PM 29.7360 -81.4500 355° North 451 519 27,300 699 Climbing FlightAware ADS-B
Sun 11:51:28 PM 29.8560 -81.4620 355° North 453 521 28,300 1,429 Climbing FlightAware ADS-B
Sun 11:51:35 PM 29.7900 -81.4560 175° South 463 533 28,800 1,245 Climbing FlightAware ADS-B
Sun 11:52:21 PM 29.9830 -81.4100 12° North 472 543 29,400 886 Climbing FlightAware ADS-B
Sun 11:53:03 PM 30.0620 -81.3740 22° Northeast 473 544 30,100 1,000 Climbing FlightAware ADS-B
Sun 11:53:45 PM 30.1480 -81.3350 21° North 474 545 30,800 1,143 Climbing FlightAware ADS-B
Sun 11:54:27 PM 30.2330 -81.2960 22° Northeast 467 537 31,700 1,357 Climbing FlightAware ADS-B
Sun 11:55:09 PM 30.3240 -81.2540 22° Northeast 461 531 32,700 1,143 Climbing FlightAware ADS-B
Sun 11:55:51 PM 30.4030 -81.2180 21° North 459 528 33,300 857 Climbing FlightAware ADS-B
Sun 11:56:33 PM 30.4820 -81.1810 22° Northeast 458 527 33,900 825 Climbing FlightAware ADS-B
Sun 11:57:11 PM 30.5530 -81.1490 21° North 459 528 34,400 500 Climbing FlightAware ADS-B
Sun 11:57:57 PM 30.6440 -81.1060 22° Northeast 462 532 34,600 225 Climbing FlightAware ADS-B
Sun 11:58:31 PM 30.7040 -81.0780 22° Northeast 467 537 34,700 72 Climbing FlightAware ADS-B
Sun 11:59:20 PM 30.7880 -81.0390 22° Northeast 467 537 34,700  Level FlightAware ADS-B
Sun 11:59:56 PM 30.8490 -81.0100 22° Northeast 467 537 34,700  Level FlightAware ADS-B
Mon 12:00:44 AM 30.9310 -80.9720 22° Northeast 467 537 34,700  Level FlightAware ADS-B
Mon 12:01:30 AM 31.0090 -80.9350 22° Northeast 467 537 34,700  Level FlightAware ADS-B
Mon 12:02:07 AM 31.0720 -80.9050 22° Northeast 467 537 34,700  Level FlightAware ADS-B
Mon 12:02:53 AM 31.1500 -80.8680 22° Northeast 467 537 34,700  Level FlightAware ADS-B
Mon 12:03:29 AM 31.2120 -80.8390 22° Northeast 467 537 34,700  Level FlightAware ADS-B
Mon 12:04:18 AM 31.2950 -80.8000 22° Northeast 467 537 34,700  Level FlightAware ADS-B
Mon 12:04:55 AM 31.3580 -80.7700 22° Northeast 467 537 34,700  Level FlightAware ADS-B
Mon 12:05:56 AM 31.4620 -80.7210 22° Northeast 467 537 34,700  Level FlightAware ADS-B
Mon 12:06:33 AM 31.5250 -80.6910 22° Northeast 467 537 34,700 189 Level FlightAware ADS-B
Mon 12:07:31 AM 31.7970 -80.5660 21° North 471 542 35,000 184 Climbing FlightAware ADS-B
Mon 12:08:11 AM 31.8850 -80.5240 22° Northeast 469 540 35,000  Level FlightAware ADS-B
Mon 12:08:56 AM 31.9760 -80.4810 22° Northeast 468 539 35,000  Level FlightAware ADS-B
Mon 12:09:36 AM 32.0540 -80.4430 22° Northeast 468 539 35,000  Level FlightAware ADS-B
Mon 12:10:17 AM 32.1310 -80.3910 30° Northeast 472 543 35,000  Level FlightAware ADS-B
Mon 12:10:56 AM 32.2060 -80.3370 31° Northeast 470 541 35,000  Level FlightAware ADS-B
Mon 12:11:41 AM 32.2850 -80.2790 32° Northeast 470 541 35,000  Level FlightAware ADS-B
Mon 12:12:21 AM 32.3640 -80.2220 31° Northeast 470 541 35,000  Level FlightAware ADS-B
Mon 12:13:06 AM 32.4460 -80.1620 32° Northeast 470 541 35,000  Level FlightAware ADS-B
Mon 12:13:51 AM 32.5280 -80.1020 32° Northeast 470 541 35,000  Level FlightAware ADS-B
Mon 12:14:31 AM 32.6010 -80.0480 32° Northeast 471 542 35,000  Level FlightAware ADS-B
Mon 12:15:06 AM 32.6690 -79.9980 32° Northeast 470 541 35,000  Level FlightAware ADS-B
Mon 12:15:56 AM 32.7600 -79.9310 32° Northeast 471 542 35,000  Level FlightAware ADS-B
Mon 12:16:36 AM 32.8310 -79.8780 32° Northeast 471 542 35,000  Level FlightAware ADS-B
Mon 12:17:16 AM 32.9100 -79.8200 32° Northeast 470 541 35,000  Level FlightAware ADS-B
Mon 12:18:01 AM 32.9920 -79.7600 32° Northeast 469 540 35,000  Level FlightAware ADS-B
Mon 12:18:41 AM 33.0670 -79.7040 32° Northeast 469 540 35,000  Level FlightAware ADS-B
Mon 12:19:21 AM 33.1340 -79.6540 32° Northeast 468 539 35,000  Level FlightAware ADS-B
Mon 12:20:06 AM 33.2230 -79.5880 32° Northeast 468 539 35,000  Level FlightAware ADS-B
Mon 12:20:46 AM 33.2950 -79.5340 32° Northeast 469 540 35,000  Level FlightAware ADS-B
Mon 12:21:31 AM 33.3780 -79.4720 32° Northeast 471 542 35,000  Level FlightAware ADS-B
Mon 12:22:11 AM 33.4520 -79.4160 32° Northeast 471 542 35,000  Level FlightAware ADS-B
Mon 12:22:56 AM 33.5360 -79.3540 32° Northeast 470 541 35,000  Level FlightAware ADS-B
Mon 12:23:36 AM 33.6100 -79.2980 32° Northeast 469 540 35,000  Level FlightAware ADS-B
Mon 12:24:16 AM 33.6830 -79.2430 32° Northeast 469 540 35,000  Level FlightAware ADS-B
Mon 12:25:01 AM 33.7660 -79.1800 32° Northeast 469 540 35,000  Level FlightAware ADS-B
Mon 12:25:41 AM 33.8370 -79.1270 32° Northeast 471 542 35,000  Level FlightAware ADS-B
Mon 12:26:26 AM 33.9210 -79.0620 33° Northeast 470 541 35,000  Level FlightAware ADS-B
Mon 12:27:06 AM 33.9960 -79.0050 32° Northeast 471 542 35,000  Level FlightAware ADS-B
Mon 12:27:51 AM 34.0750 -78.9450 32° Northeast 469 540 35,000  Level FlightAware ADS-B
Mon 12:28:31 AM 34.1520 -78.8860 32° Northeast 470 541 35,000  Level FlightAware ADS-B
Mon 12:29:11 AM 34.2270 -78.8280 33° Northeast 471 542 35,000  Level FlightAware ADS-B
Mon 12:29:51 AM 34.2990 -78.7730 32° Northeast 472 543 35,000  Level FlightAware ADS-B
Mon 12:30:54 AM 34.4050 -78.6920 32° Northeast 472 543 35,000  Level FlightAware ADS-B
Mon 12:31:34 AM 34.4830 -78.6320 32° Northeast 473 544 35,000  Level FlightAware ADS-B
Mon 12:32:11 AM 34.5410 -78.5880 32° Northeast 473 544 35,000  Level FlightAware ADS-B
Mon 12:32:56 AM 34.4570 -78.6520 212° Southwest 35,000  Level FlightAware ADS-B
Mon 12:33:23 AM 34.6910 -78.4700 33° Northeast 474 545 35,000  Level FlightAware ADS-B
Mon 12:34:07 AM 34.7720 -78.4070 33° Northeast 474 545 35,000  Level FlightAware ADS-B
Mon 12:34:47 AM 34.8480 -78.3480 32° Northeast 474 545 35,000  Level FlightAware ADS-B
Mon 12:35:33 AM 34.9320 -78.2820 33° Northeast 476 548 35,000  Level FlightAware ADS-B
Mon 12:36:07 AM 34.9880 -78.2400 32° Northeast 476 548 35,000  Level FlightAware ADS-B
Mon 12:36:55 AM 35.0640 -78.1820 32° Northeast 476 548 35,000  Level FlightAware ADS-B
Mon 12:37:31 AM 35.1210 -78.1380 32° Northeast 476 548 35,000  Level FlightAware ADS-B
Mon 12:38:20 AM 35.1990 -78.0780 32° Northeast 476 548 35,000  Level FlightAware ADS-B
Mon 12:38:56 AM 35.2560 -78.0350 32° Northeast 476 548 35,000  Level FlightAware ADS-B
Mon 12:39:44 AM 35.3320 -77.9760 32° Northeast 476 548 35,000  Level FlightAware ADS-B
Mon 12:40:26 AM 35.4800 -77.8500 35° Northeast 484 557 35,000  Level FlightAware ADS-B
Mon 12:41:07 AM 35.5550 -77.7900 33° Northeast 483 556 35,000  Level FlightAware ADS-B
Mon 12:41:51 AM 35.6400 -77.7220 33° Northeast 484 557 35,000  Level FlightAware ADS-B
Mon 12:42:31 AM 35.7150 -77.6620 33° Northeast 484 557 35,000  Level FlightAware ADS-B
Mon 12:43:11 AM 35.7890 -77.6020 33° Northeast 483 556 35,000  Level FlightAware ADS-B
Mon 12:43:51 AM 35.8640 -77.5430 33° Northeast 483 556 35,000  Level FlightAware ADS-B
Mon 12:44:35 AM 35.9390 -77.4820 33° Northeast 484 557 35,000  Level FlightAware ADS-B
Mon 12:45:18 AM 36.0270 -77.4100 33° Northeast 484 557 35,000  Level FlightAware ADS-B
Mon 12:45:59 AM 36.1010 -77.3510 33° Northeast 483 556 35,000  Level FlightAware ADS-B
Mon 12:46:42 AM 36.1820 -77.2850 33° Northeast 482 555 35,000  Level FlightAware ADS-B
Mon 12:47:27 AM 36.2670 -77.2160 33° Northeast 481 554 35,000  Level FlightAware ADS-B
Mon 12:48:07 AM 36.3390 -77.1570 33° Northeast 480 552 35,000  Level FlightAware ADS-B
Mon 12:48:47 AM 36.4100 -77.0990 33° Northeast 480 552 35,000  Level FlightAware ADS-B
Mon 12:49:27 AM 36.4880 -77.0350 33° Northeast 482 555 35,000  Level FlightAware ADS-B
Mon 12:50:16 AM 36.5680 -76.9700 33° Northeast 482 555 35,000  Level FlightAware ADS-B
Mon 12:50:52 AM 36.6470 -76.9040 34° Northeast 485 558 35,000  Level FlightAware ADS-B
Mon 12:51:37 AM 36.7310 -76.8340 34° Northeast 485 558 35,000  Level FlightAware ADS-B
Mon 12:52:18 AM 36.8060 -76.7720 33° Northeast 485 558 35,000  Level FlightAware ADS-B
Mon 12:53:03 AM 36.8850 -76.7070 33° Northeast 484 557 35,000  Level FlightAware ADS-B
Mon 12:53:44 AM 36.9580 -76.6460 34° Northeast 485 558 35,000  Level FlightAware ADS-B
Mon 12:54:25 AM 37.0481 -76.5709 34° Northeast 485 558 35,000  Level FlightAware ADS-B
Mon 12:54:56 AM 37.1043 -76.5241 34° Northeast 485 558 35,000  Level FlightAware ADS-B
Mon 12:55:26 AM 37.1612 -76.4764 34° Northeast 485 558 35,000  Level FlightAware ADS-B
Mon 12:55:57 AM 37.2194 -76.4276 34° Northeast 486 559 35,000  Level FlightAware ADS-B
Mon 12:56:27 AM 37.2750 -76.3808 34° Northeast 486 559 35,000  Level FlightAware ADS-B
Mon 12:56:58 AM 37.3318 -76.3330 34° Northeast 486 559 35,000  Level FlightAware ADS-B
Mon 12:57:28 AM 37.3894 -76.2843 34° Northeast 486 559 35,000  Level FlightAware ADS-B
Mon 12:58:00 AM 37.4486 -76.2343 34° Northeast 488 562 35,000  Level FlightAware ADS-B
Mon 12:58:30 AM 37.5049 -76.1865 34° Northeast 488 562 35,000  Level FlightAware ADS-B
Mon 12:59:18 AM 37.5910 -76.1130 34° Northeast 487 560 35,000 -254 Level FlightAware ADS-B
Mon 12:59:41 AM 37.6369 -76.0743 34° Northeast 488 562 34,700 -792 Descending FlightAware ADS-B
Mon 01:00:11 AM 37.6935 -76.0262 34° Northeast 487 560 34,300 -900 Descending FlightAware ADS-B
Mon 01:00:41 AM 37.7502 -75.9777 34° Northeast 490 564 33,800 -984 Descending FlightAware ADS-B
Mon 01:01:12 AM 37.8068 -75.9293 34° Northeast 493 567 33,300 -984 Descending FlightAware ADS-B
Mon 01:01:42 AM 37.8637 -75.8805 34° Northeast 495 570 32,800 -1,600 Descending FlightAware ADS-B
Mon 01:02:12 AM 37.9205 -75.8315 34° Northeast 493 567 31,700 -2,500 Descending FlightAware ADS-B
Mon 01:02:42 AM 37.9773 -75.7826 34° Northeast 495 570 30,300 -3,148 Descending FlightAware ADS-B
Mon 01:03:13 AM 38.0365 -75.7318 34° Northeast 505 581 28,500 -2,951 Descending FlightAware ADS-B
Mon 01:03:43 AM 38.0951 -75.6812 34° Northeast 500 575 27,300 -2,400 Descending FlightAware ADS-B
Mon 01:04:13 AM 38.1524 -75.6316 34° Northeast 494 568 26,100 -2,164 Descending FlightAware ADS-B
Mon 01:04:44 AM 38.2087 -75.5828 34° Northeast 483 556 25,100 -2,459 Descending FlightAware ADS-B
Mon 01:05:14 AM 38.2645 -75.5344 34° Northeast 482 555 23,600 -2,100 Descending FlightAware ADS-B
Mon 01:05:44 AM 38.3191 -75.4867 34° Northeast 460 529 23,000 -600 Descending FlightAware ADS-B
Mon 01:06:14 AM 38.3712 -75.4411 34° Northeast 451 519 23,000 -1,377 Level FlightAware ADS-B
Mon 01:06:45 AM 38.4241 -75.3948 34° Northeast 463 533 21,600 -2,361 Descending FlightAware ADS-B
Mon 01:07:15 AM 38.4773 -75.3482 34° Northeast 449 517 20,600 -2,164 Descending FlightAware ADS-B
Mon 01:07:46 AM 38.5285 -75.3033 34° Northeast 441 507 19,400 -2,164 Descending FlightAware ADS-B
Mon 01:08:16 AM 38.5786 -75.2593 34° Northeast 429 494 18,400 -1,700 Descending FlightAware ADS-B
Mon 01:08:46 AM 38.6265 -75.2170 35° Northeast 410 472 17,700 -1,672 Descending FlightAware ADS-B
Mon 01:09:17 AM 38.6738 -75.1753 35° Northeast 401 461 16,700 -1,672 Descending FlightAware ADS-B
Mon 01:09:47 AM 38.7183 -75.1360 35° Northeast 388 447 16,000 -1,500 Descending FlightAware ADS-B
Mon 01:10:17 AM 38.7632 -75.0964 35° Northeast 378 435 15,200 -1,770 Descending FlightAware ADS-B
Mon 01:10:48 AM 38.8061 -75.0583 35° Northeast 363 418 14,200 -1,967 Descending FlightAware ADS-B
Mon 01:11:18 AM 38.8473 -75.0217 35° Northeast 347 399 13,200 -1,672 Descending FlightAware ADS-B
Mon 01:11:49 AM 38.8857 -74.9875 35° Northeast 322 371 12,500 -1,667 Descending FlightAware ADS-B
Mon 01:12:12 AM 38.9138 -74.9625 35° Northeast 316 364 11,700 -2,151 Descending FlightAware ADS-B
Mon 01:12:42 AM 38.9492 -74.9312 35° Northeast 311 358 10,600 -2,204 Descending FlightAware ADS-B
Mon 01:13:01 AM 38.9717 -74.9111 35° Northeast 309 356 9,900 -1,941 Descending FlightAware ADS-B
Mon 01:13:16 AM 38.9892 -74.8954 35° Northeast 302 348 9,500 -1,929 Descending FlightAware ADS-B
Mon 01:13:29 AM 39.0036 -74.8825 35° Northeast 299 344 9,000 -2,308 Descending FlightAware ADS-B
Mon 01:13:42 AM 39.0190 -74.8687 35° Northeast 296 341 8,500 -1,655 Descending FlightAware ADS-B
Mon 01:13:58 AM 39.0361 -74.8534 35° Northeast 287 330 8,200 -968 Descending FlightAware ADS-B
Mon 01:14:13 AM 39.0535 -74.8380 34° Northeast 292 336 8,000 -387 Descending FlightAware ADS-B
Mon 01:14:29 AM 39.0708 -74.8226 35° Northeast 291 335 8,000  Level FlightAware ADS-B
Mon 01:14:44 AM 39.0876 -74.8075 35° Northeast 294 338 8,000  Level FlightAware ADS-B
Mon 01:14:54 AM 39.0988 -74.7974 35° Northeast 294 338 8,000  Level FlightAware ADS-B
Mon 01:14:59 AM 39.1040 -74.7921 38° Northeast 297 342 8,000  Level FlightAware ADS-B
Mon 01:15:03 AM 39.1075 -74.7877 44° Northeast 299 344 8,000  Level FlightAware ADS-B
Mon 01:15:06 AM 39.1102 -74.7839 48° Northeast 301 346 8,000  Level FlightAware ADS-B
Mon 01:15:16 AM 39.1194 -74.7691 51° Northeast 302 348 8,000  Level FlightAware ADS-B
Mon 01:15:32 AM 39.1324 -74.7470 53° Northeast 302 348 8,000 -194 Level FlightAware ADS-B
Mon 01:15:47 AM 39.1448 -74.7255 53° Northeast 288 331 7,900 -400 Descending FlightAware ADS-B
Mon 01:16:02 AM 39.1564 -74.7054 53° Northeast 274 315 7,800 -600 Descending FlightAware ADS-B
Mon 01:16:17 AM 39.1680 -74.6855 53° Northeast 260 299 7,600 -1,161 Descending FlightAware ADS-B
Mon 01:16:33 AM 39.1788 -74.6671 53° Northeast 253 291 7,200 -1,500 Descending FlightAware ADS-B
Mon 01:16:49 AM 39.1899 -74.6481 53° Northeast 252 290 6,800 -1,548 Descending FlightAware ADS-B
Mon 01:17:04 AM 39.2006 -74.6302 52° Northeast 248 285 6,400 -1,600 Descending FlightAware ADS-B
Mon 01:17:19 AM 39.2111 -74.6123 53° Northeast 248 285 6,000 -1,800 Descending FlightAware ADS-B
Mon 01:17:34 AM 39.2219 -74.5942 52° Northeast 247 284 5,500 -1,800 Descending FlightAware ADS-B
Mon 01:17:49 AM 39.2322 -74.5769 52° Northeast 243 280 5,100 -1,500 Descending FlightAware ADS-B
Mon 01:18:02 AM 39.2404 -74.5630 53° Northeast 240 276 4,800 -1,385 Descending FlightAware ADS-B
Mon 01:18:15 AM 39.2492 -74.5478 53° Northeast 236 272 4,500 -1,500 Descending FlightAware ADS-B
Mon 01:18:30 AM 39.2590 -74.5311 53° Northeast 233 268 4,100 -1,600 Descending FlightAware ADS-B
Mon 01:18:45 AM 39.2689 -74.5144 53° Northeast 233 268 3,700 -1,800 Descending FlightAware ADS-B
Mon 01:19:00 AM 39.2790 -74.4974 52° Northeast 238 274 3,200 -1,800 Descending FlightAware ADS-B
Mon 01:19:15 AM 39.2890 -74.4802 53° Northeast 237 273 2,800 -1,655 Descending FlightAware ADS-B
Mon 01:19:29 AM 39.2978 -74.4651 53° Northeast 235 270 2,400 -1,655 Descending FlightAware ADS-B
Mon 01:19:44 AM 39.3078 -74.4481 53° Northeast 234 269 2,000 -1,355 Descending FlightAware ADS-B
Mon 01:20:00 AM 39.3182 -74.4306 52° Northeast 230 265 1,700 -750 Descending FlightAware ADS-B
Mon 01:20:16 AM 39.3282 -74.4136 53° Northeast 226 260 1,600 -182 Descending FlightAware ADS-B
Mon 01:20:33 AM 39.3391 -74.3950 53° Northeast 226 260 1,600  Level FlightAware ADS-B
Mon 01:20:54 AM 39.3552 -74.3794 37° Northeast 226 260 1,600  Level FlightAware ADS-B
Mon 01:20:58 AM 39.3578 -74.3793 North 183 211 1,600  Level FlightAware ADS-B
Mon 01:21:02 AM 39.3615 -74.3799 353° North 180 207 1,600  Level FlightAware ADS-B
Mon 01:21:06 AM 39.3643 -74.3809 345° North 174 200 1,600  Level FlightAware ADS-B
Mon 01:21:11 AM 39.3684 -74.3831 337° Northwest 171 197 1,600  Level FlightAware ADS-B
Mon 01:21:24 AM 39.3764 -74.3900 326° Northwest 165 190 1,600  Level FlightAware ADS-B
Mon 01:21:28 AM 39.3788 -74.3931 315° West 163 188 1,600  Level FlightAware ADS-B
Mon 01:21:37 AM 39.3831 -74.4001 308° West 162 186 1,600  Level FlightAware ADS-B
Mon 01:21:44 AM 39.3859 -74.4051 306° West 162 186 1,600  Level FlightAware ADS-B
Mon 01:21:56 AM 39.3907 -74.4150 302° West 157 181 1,600  Level FlightAware ADS-B
Mon 01:22:06 AM 39.3942 -74.4225 301° West 154 177 1,600  Level FlightAware ADS-B
Mon 01:22:21 AM 39.3994 -74.4344 299° West 152 175 1,600  Level FlightAware ADS-B
Mon 01:22:29 AM 39.4023 -74.4413 299° West 151 174 1,600  Level FlightAware ADS-B
Mon 01:22:49 AM 39.4087 -74.4567 298° West 149 171 1,600  Level FlightAware ADS-B
Mon 01:22:59 AM 39.4119 -74.4642 299° West 139 160 1,600  Level FlightAware ADS-B
Mon 01:23:05 AM 39.4137 -74.4686 298° West 139 160 1,600 -400 Level FlightAware ADS-B
Mon 01:23:14 AM 39.4164 -74.4752 298° West 139 160 1,500 -632 Descending FlightAware ADS-B
Mon 01:23:24 AM 39.4194 -74.4825 298° West 136 157 1,400 -692 Descending FlightAware ADS-B
Mon 01:23:40 AM 39.4240 -74.4935 298° West 136 157 1,200 -766 Descending FlightAware ADS-B
Mon 01:24:11 AM 39.4330 -74.5150 298° West 134 154 800 -652 Descending FlightAware ADS-B
Mon 01:24:26 AM 39.4370 -74.5250 297° West 134 154 700 -143 Descending FlightAware ADS-B
Mon 01:24:53 AM 39.4440 -74.5420 298° West 134 154 700  Level FlightAware ADS-B

Login

Don't have an account? Register now (free) for customized features, flight alerts, and more!